Time;durP1;ratioP1;P1;durP2;ratioP2;P2;SDS_P1;SDS_P2;PMS_P1;PMS_P2;Temp;Humidity;BMP_temperature;BMP_pressure;BME280_temperature;BME280_humidity;BME280_pressure;Samples;Min_cycle;Max_cycle;Signal;HPM_P1;HPM_P2
2023/12/01 00:00:08;;;;;;;10.60;8.65;;;;;;;;;;5064001;28;20115;-77
2023/12/01 00:02:33;;;;;;;11.48;8.70;;;;;;;;;;5068353;28;20446;-75
2023/12/01 00:04:59;;;;;;;10.40;8.63;;;;;;;;;;5068275;28;20016;-75
2023/12/01 00:07:24;;;;;;;10.93;8.93;;;;;;;;;;5067659;28;20087;-77
2023/12/01 00:09:49;;;;;;;10.70;8.43;;;;;;;;;;5057819;28;20036;-75
2023/12/01 00:12:15;;;;;;;10.38;8.32;;;;;;;;;;5069328;28;20047;-74
2023/12/01 00:14:42;;;;;;;10.13;8.25;;;;;;;;;;5066208;28;20533;-75
2023/12/01 00:17:08;;;;;;;10.85;8.23;;;;;;;;;;5068651;28;20015;-75
2023/12/01 00:19:33;;;;;;;10.30;8.73;;;;;;;;;;5068312;28;20033;-75
2023/12/01 00:21:58;;;;;;;9.80;8.10;;;;;;;;;;5068770;28;20048;-75
2023/12/01 00:24:24;;;;;;;10.45;8.93;;;;;;;;;;5068382;28;20250;-76
2023/12/01 00:26:49;;;;;;;9.18;8.05;;;;;;;;;;5068469;28;20078;-76
2023/12/01 00:29:14;;;;;;;12.77;8.65;;;;;;;;;;5068257;28;20095;-76
2023/12/01 00:31:40;;;;;;;10.15;8.48;;;;;;;;;;5066795;28;20055;-75
2023/12/01 00:34:05;;;;;;;10.05;8.13;;;;;;;;;;5067643;28;20021;-76
2023/12/01 00:36:32;;;;;;;10.35;8.52;;;;;;;;;;5067076;28;20032;-75
2023/12/01 00:38:57;;;;;;;9.52;8.35;;;;;;;;;;5068128;28;20067;-76
2023/12/01 00:41:23;;;;;;;10.10;8.13;;;;;;;;;;5066956;28;20044;-76
2023/12/01 00:43:49;;;;;;;9.02;7.82;;;;;;;;;;5066930;28;20012;-76
2023/12/01 00:46:14;;;;;;;8.98;7.53;;;;;;;;;;5074601;28;20009;-76
2023/12/01 00:48:39;;;;;;;10.63;8.65;;;;;;;;;;5074352;28;20035;-76
2023/12/01 00:51:12;;;;;;;11.38;8.45;;;;;;;;;;5074213;28;20066;-76
2023/12/01 00:53:37;;;;;;;9.30;7.63;;;;;;;;;;5071557;28;20497;-76
2023/12/01 00:56:03;;;;;;;9.93;7.78;;;;;;;;;;5070426;28;20036;-76
2023/12/01 00:58:28;;;;;;;9.02;7.63;;;;;;;;;;5067574;28;20503;-76
2023/12/01 01:00:54;;;;;;;9.30;8.10;;;;;;;;;;5068448;28;20044;-75
2023/12/01 01:03:21;;;;;;;10.00;7.60;;;;;;;;;;5067701;28;20037;-76
2023/12/01 01:05:46;;;;;;;8.75;7.32;;;;;;;;;;5068866;28;20540;-76
2023/12/01 01:08:12;;;;;;;10.45;8.23;;;;;;;;;;5069748;28;20036;-75
2023/12/01 01:10:38;;;;;;;9.63;8.13;;;;;;;;;;5071182;28;20032;-75
2023/12/01 01:13:10;;;;;;;8.98;7.88;;;;;;;;;;5075558;28;20043;-76
2023/12/01 01:15:38;;;;;;;10.13;8.02;;;;;;;;;;5071368;28;20030;-75
2023/12/01 01:18:20;;;;;;;9.27;7.85;;;;;;;;;;5069748;28;20047;-76
2023/12/01 01:20:54;;;;;;;9.63;7.70;;;;;;;;;;5070936;28;20033;-76
2023/12/01 01:23:40;;;;;;;9.07;7.38;;;;;;;;;;5069870;28;20113;-75
2023/12/01 01:26:07;;;;;;;8.68;7.10;;;;;;;;;;5070546;28;20039;-76
2023/12/01 01:28:40;;;;;;;9.23;7.65;;;;;;;;;;5070574;28;20036;-76
2023/12/01 01:31:06;;;;;;;9.50;7.30;;;;;;;;;;5070916;28;20025;-76
2023/12/01 01:33:39;;;;;;;10.35;8.00;;;;;;;;;;5069459;28;20381;-75
2023/12/01 01:36:04;;;;;;;8.95;7.25;;;;;;;;;;5067130;28;20024;-76
2023/12/01 01:38:29;;;;;;;8.52;6.90;;;;;;;;;;5066466;28;20051;-75
2023/12/01 01:40:55;;;;;;;8.70;7.30;;;;;;;;;;5066499;28;20123;-76
2023/12/01 01:43:21;;;;;;;8.73;7.25;;;;;;;;;;5069428;28;20101;-76
2023/12/01 01:45:46;;;;;;;8.38;6.50;;;;;;;;;;5092852;28;20033;-76
2023/12/01 01:48:11;;;;;;;9.40;7.07;;;;;;;;;;5092205;28;20039;-76
2023/12/01 01:50:37;;;;;;;8.00;7.00;;;;;;;;;;5092555;28;20062;-76
2023/12/01 01:53:03;;;;;;;9.35;7.28;;;;;;;;;;5092605;28;20044;-76
2023/12/01 01:55:28;;;;;;;8.35;6.80;;;;;;;;;;5081189;28;20025;-75
2023/12/01 01:57:53;;;;;;;8.60;7.00;;;;;;;;;;5092849;28;20040;-76
2023/12/01 02:00:20;;;;;;;8.77;6.78;;;;;;;;;;5091492;28;20074;-76
2023/12/01 02:02:46;;;;;;;8.57;7.20;;;;;;;;;;5092346;28;20094;-76
2023/12/01 02:05:14;;;;;;;9.32;7.10;;;;;;;;;;5091319;28;20036;-76
2023/12/01 02:07:41;;;;;;;8.52;6.78;;;;;;;;;;5092564;28;20033;-76
2023/12/01 02:10:07;;;;;;;9.25;7.18;;;;;;;;;;5092166;28;20060;-76
2023/12/01 02:12:32;;;;;;;8.98;6.93;;;;;;;;;;5094293;28;20059;-76
2023/12/01 02:14:57;;;;;;;8.70;6.72;;;;;;;;;;5094843;28;20024;-76
2023/12/01 02:17:23;;;;;;;6.97;5.82;;;;;;;;;;5096424;28;20025;-76
2023/12/01 02:19:51;;;;;;;8.77;6.80;;;;;;;;;;5096124;28;20051;-76
2023/12/01 02:22:16;;;;;;;8.50;6.90;;;;;;;;;;5092600;28;20024;-76
2023/12/01 02:24:41;;;;;;;7.70;6.57;;;;;;;;;;5076970;28;20423;-76
2023/12/01 02:27:07;;;;;;;8.07;6.40;;;;;;;;;;5070896;28;20044;-76
2023/12/01 02:29:32;;;;;;;8.70;6.90;;;;;;;;;;5070609;28;20127;-75
2023/12/01 02:31:58;;;;;;;8.25;6.35;;;;;;;;;;5069810;28;20075;-76
2023/12/01 02:34:23;;;;;;;7.25;6.20;;;;;;;;;;5068224;28;20609;-76
2023/12/01 02:36:48;;;;;;;8.13;6.53;;;;;;;;;;5069834;28;20037;-76
2023/12/01 02:39:14;;;;;;;8.73;6.50;;;;;;;;;;5069256;28;20109;-76
2023/12/01 02:41:39;;;;;;;8.85;6.75;;;;;;;;;;5068923;28;20037;-76
2023/12/01 02:44:04;;;;;;;6.88;6.00;;;;;;;;;;5067422;28;20129;-76
2023/12/01 02:46:30;;;;;;;7.57;6.63;;;;;;;;;;5069720;28;20051;-76
2023/12/01 02:48:55;;;;;;;7.75;6.03;;;;;;;;;;5069330;28;20036;-76
2023/12/01 02:51:21;;;;;;;8.52;6.65;;;;;;;;;;5067895;28;20065;-76
2023/12/01 02:53:46;;;;;;;8.05;5.82;;;;;;;;;;5067629;28;20052;-76
2023/12/01 02:56:11;;;;;;;7.57;6.15;;;;;;;;;;5063037;28;20033;-76
2023/12/01 02:58:36;;;;;;;7.88;6.55;;;;;;;;;;5057581;28;20596;-76
2023/12/01 03:01:03;;;;;;;8.32;6.60;;;;;;;;;;5066267;28;20219;-76
2023/12/01 03:03:28;;;;;;;7.82;6.32;;;;;;;;;;5065476;28;20051;-75
2023/12/01 03:05:53;;;;;;;8.02;6.20;;;;;;;;;;5067203;28;20418;-76
2023/12/01 03:08:19;;;;;;;8.65;6.60;;;;;;;;;;5069646;28;20493;-76
2023/12/01 03:10:44;;;;;;;7.63;6.03;;;;;;;;;;5067181;28;20047;-76
2023/12/01 03:13:09;;;;;;;7.85;6.22;;;;;;;;;;5068296;28;20102;-76
2023/12/01 03:15:35;;;;;;;7.80;5.75;;;;;;;;;;5067618;28;20044;-75
2023/12/01 03:18:00;;;;;;;8.57;6.35;;;;;;;;;;5068865;28;20058;-76
2023/12/01 03:20:27;;;;;;;6.90;5.82;;;;;;;;;;5066066;28;20106;-76
2023/12/01 03:22:53;;;;;;;6.95;6.25;;;;;;;;;;5067654;28;20231;-76
2023/12/01 03:25:18;;;;;;;8.23;6.03;;;;;;;;;;5068485;28;20616;-76
2023/12/01 03:27:44;;;;;;;6.97;5.57;;;;;;;;;;5068623;28;20041;-76
2023/12/01 03:30:13;;;;;;;7.70;6.05;;;;;;;;;;5068465;28;20042;-75
2023/12/01 03:32:40;;;;;;;6.60;5.90;;;;;;;;;;5064146;28;20595;-76
2023/12/01 03:35:06;;;;;;;7.78;5.90;;;;;;;;;;5069125;28;20045;-76
2023/12/01 03:37:31;;;;;;;7.00;6.10;;;;;;;;;;5068220;28;20047;-75
2023/12/01 03:39:56;;;;;;;7.53;5.93;;;;;;;;;;5054476;28;20102;-75
2023/12/01 03:42:22;;;;;;;7.90;5.88;;;;;;;;;;5068522;28;20032;-75
2023/12/01 03:44:47;;;;;;;7.15;5.60;;;;;;;;;;5069770;28;20036;-75
2023/12/01 03:47:12;;;;;;;6.85;5.78;;;;;;;;;;5072825;28;20040;-75
2023/12/01 03:49:38;;;;;;;6.50;5.35;;;;;;;;;;5068940;28;20043;-76
2023/12/01 03:52:03;;;;;;;5.88;5.28;;;;;;;;;;5065313;28;20048;-75
2023/12/01 03:54:28;;;;;;;7.20;6.00;;;;;;;;;;5067951;28;20119;-76
2023/12/01 03:56:54;;;;;;;6.53;5.72;;;;;;;;;;5067829;28;20533;-76
2023/12/01 03:59:19;;;;;;;6.63;5.60;;;;;;;;;;5068200;28;20048;-77
2023/12/01 04:01:44;;;;;;;6.65;5.32;;;;;;;;;;5066741;28;20036;-75
2023/12/01 04:04:10;;;;;;;6.47;5.43;;;;;;;;;;5066191;28;20076;-75
2023/12/01 04:06:36;;;;;;;6.53;5.82;;;;;;;;;;5067900;28;20029;-75
2023/12/01 04:09:05;;;;;;;6.82;5.07;;;;;;;;;;5065656;28;20701;-73
2023/12/01 04:11:31;;;;;;;6.20;5.10;;;;;;;;;;5065693;28;20084;-74
2023/12/01 04:13:57;;;;;;;6.68;5.05;;;;;;;;;;5064377;28;20024;-74
2023/12/01 04:16:24;;;;;;;6.72;5.40;;;;;;;;;;5068194;28;20032;-74
2023/12/01 04:18:53;;;;;;;6.57;5.07;;;;;;;;;;5066527;28;20123;-75
2023/12/01 04:21:18;;;;;;;6.45;5.47;;;;;;;;;;5067142;28;20485;-76
2023/12/01 04:23:43;;;;;;;5.80;4.90;;;;;;;;;;5068396;28;20070;-76
2023/12/01 04:26:11;;;;;;;7.50;5.30;;;;;;;;;;5068074;28;20028;-75
2023/12/01 04:28:37;;;;;;;6.40;5.15;;;;;;;;;;5067977;28;20027;-77
2023/12/01 04:31:05;;;;;;;6.18;5.22;;;;;;;;;;5069530;28;20012;-76
2023/12/01 04:33:30;;;;;;;7.53;5.32;;;;;;;;;;5066569;28;20028;-75
2023/12/01 04:35:55;;;;;;;6.75;5.00;;;;;;;;;;5067060;28;20358;-75
2023/12/01 04:38:21;;;;;;;5.97;4.90;;;;;;;;;;5067145;28;20040;-76
2023/12/01 04:40:46;;;;;;;5.57;4.72;;;;;;;;;;5062124;28;20036;-76
2023/12/01 04:43:11;;;;;;;6.05;4.68;;;;;;;;;;5065424;28;20036;-75
2023/12/01 04:45:37;;;;;;;5.47;4.60;;;;;;;;;;5064130;28;20086;-75
2023/12/01 04:48:02;;;;;;;5.90;4.90;;;;;;;;;;5064650;28;20082;-76
2023/12/01 04:50:29;;;;;;;5.57;4.63;;;;;;;;;;5067318;28;20044;-75
2023/12/01 04:52:55;;;;;;;5.68;4.93;;;;;;;;;;5066771;28;20028;-76
2023/12/01 04:55:22;;;;;;;5.45;4.63;;;;;;;;;;5065764;28;20045;-76
2023/12/01 04:57:48;;;;;;;6.13;5.05;;;;;;;;;;5064432;28;20460;-76
2023/12/01 05:00:19;;;;;;;6.75;4.57;;;;;;;;;;5065034;28;20037;-76
2023/12/01 05:02:55;;;;;;;5.35;4.57;;;;;;;;;;5066267;28;20139;-75
2023/12/01 05:05:21;;;;;;;5.50;4.50;;;;;;;;;;5065324;28;20155;-75
2023/12/01 05:07:50;;;;;;;6.03;4.80;;;;;;;;;;5066082;28;20032;-76
2023/12/01 05:10:22;;;;;;;5.78;4.60;;;;;;;;;;5065150;28;20033;-76
2023/12/01 05:12:52;;;;;;;5.97;4.40;;;;;;;;;;5063949;28;20021;-76
2023/12/01 05:15:18;;;;;;;6.13;4.80;;;;;;;;;;5061296;28;20099;-76
2023/12/01 05:17:46;;;;;;;6.72;4.93;;;;;;;;;;5065782;28;20754;-76
2023/12/01 05:20:15;;;;;;;4.82;4.07;;;;;;;;;;5066440;28;20403;-75
2023/12/01 05:22:44;;;;;;;6.15;4.90;;;;;;;;;;5065671;28;20048;-76
2023/12/01 05:25:13;;;;;;;5.50;4.43;;;;;;;;;;5064295;28;20059;-75
2023/12/01 05:27:49;;;;;;;5.25;4.28;;;;;;;;;;5063811;28;20039;-75
2023/12/01 05:30:15;;;;;;;5.28;4.15;;;;;;;;;;5064992;28;20071;-75
2023/12/01 05:32:41;;;;;;;7.30;4.38;;;;;;;;;;5065358;28;20036;-73
2023/12/01 05:35:10;;;;;;;5.45;4.38;;;;;;;;;;5066188;28;20115;-73
2023/12/01 05:37:35;;;;;;;5.57;4.40;;;;;;;;;;5062559;28;20095;-73
2023/12/01 05:40:01;;;;;;;5.75;4.38;;;;;;;;;;5064617;28;20064;-77
2023/12/01 05:42:26;;;;;;;5.57;4.32;;;;;;;;;;5066203;28;20449;-76
2023/12/01 05:44:51;;;;;;;4.95;4.10;;;;;;;;;;5066223;28;20040;-76
2023/12/01 05:47:17;;;;;;;5.50;4.13;;;;;;;;;;5066285;28;20131;-74
2023/12/01 05:49:42;;;;;;;5.43;4.20;;;;;;;;;;5066073;28;20048;-74
2023/12/01 05:52:07;;;;;;;5.60;3.95;;;;;;;;;;5065142;28;20033;-75
2023/12/01 05:54:32;;;;;;;4.97;3.92;;;;;;;;;;5066726;28;20032;-74
2023/12/01 05:56:58;;;;;;;5.20;4.10;;;;;;;;;;5061280;28;20029;-74
2023/12/01 05:59:23;;;;;;;5.25;3.70;;;;;;;;;;5066395;28;20072;-73
2023/12/01 06:01:48;;;;;;;4.30;3.60;;;;;;;;;;5066531;28;20040;-76
2023/12/01 06:04:14;;;;;;;4.95;3.83;;;;;;;;;;5065628;28;20029;-75
2023/12/01 06:06:39;;;;;;;4.85;3.75;;;;;;;;;;5065000;28;20381;-74
2023/12/01 06:09:07;;;;;;;5.63;4.20;;;;;;;;;;5065963;28;20044;-74
2023/12/01 06:11:32;;;;;;;5.03;3.80;;;;;;;;;;5063733;28;20044;-74
2023/12/01 06:13:58;;;;;;;4.88;3.55;;;;;;;;;;5063373;28;20032;-74
2023/12/01 06:16:23;;;;;;;4.97;3.90;;;;;;;;;;5061839;28;20083;-73
2023/12/01 06:18:49;;;;;;;4.82;3.83;;;;;;;;;;5066584;28;20060;-73
2023/12/01 06:21:14;;;;;;;5.25;4.00;;;;;;;;;;5069718;28;20079;-73
2023/12/01 06:23:39;;;;;;;4.47;3.50;;;;;;;;;;5068348;28;20028;-73
2023/12/01 06:26:05;;;;;;;4.65;3.78;;;;;;;;;;5067456;28;20033;-73
2023/12/01 06:28:30;;;;;;;5.20;4.03;;;;;;;;;;5067349;28;20036;-75
2023/12/01 06:30:55;;;;;;;3.92;3.28;;;;;;;;;;5067571;28;20036;-75
2023/12/01 06:33:22;;;;;;;4.15;3.35;;;;;;;;;;5066895;28;20165;-75
2023/12/01 06:35:47;;;;;;;5.32;3.72;;;;;;;;;;5066647;28;20094;-77
2023/12/01 06:38:12;;;;;;;4.70;3.90;;;;;;;;;;5064002;28;20485;-75
2023/12/01 06:40:38;;;;;;;4.70;3.60;;;;;;;;;;5059230;28;20049;-77
2023/12/01 06:43:10;;;;;;;5.80;3.60;;;;;;;;;;5065663;28;20040;-76
2023/12/01 06:45:37;;;;;;;4.93;3.67;;;;;;;;;;5064759;28;20029;-77
2023/12/01 06:48:02;;;;;;;8.80;3.53;;;;;;;;;;5066859;28;20044;-75
2023/12/01 06:50:28;;;;;;;4.95;3.40;;;;;;;;;;5065986;28;20033;-75
2023/12/01 06:52:53;;;;;;;4.40;3.22;;;;;;;;;;5065833;28;20102;-76
2023/12/01 06:55:18;;;;;;;4.57;3.47;;;;;;;;;;5065730;28;20512;-75
2023/12/01 06:57:44;;;;;;;4.50;3.80;;;;;;;;;;5065798;28;20077;-76
2023/12/01 07:02:56;;;;;;;4.65;3.30;;;;;;;;;;5063608;28;20065;-75
2023/12/01 07:05:22;;;;;;;3.83;3.30;;;;;;;;;;5069728;28;20041;-75
2023/12/01 07:07:50;;;;;;;4.70;3.42;;;;;;;;;;5074095;28;20461;-75
2023/12/01 07:10:15;;;;;;;4.20;3.40;;;;;;;;;;5073361;28;20039;-75
2023/12/01 07:12:40;;;;;;;4.83;3.13;;;;;;;;;;5068721;28;20037;-74
2023/12/01 07:15:11;;;;;;;4.68;3.10;;;;;;;;;;5065668;28;20722;-75
2023/12/01 07:17:39;;;;;;;6.10;3.67;;;;;;;;;;5076246;28;20109;-74
2023/12/01 07:20:14;;;;;;;5.18;3.60;;;;;;;;;;5064159;28;20036;-75
2023/12/01 07:22:42;;;;;;;5.10;3.45;;;;;;;;;;5084600;28;20059;-74
2023/12/01 07:25:10;;;;;;;5.57;3.28;;;;;;;;;;5082951;28;20029;-75
2023/12/01 07:27:38;;;;;;;4.82;3.30;;;;;;;;;;5081119;28;20049;-75
2023/12/01 07:30:04;;;;;;;5.10;3.00;;;;;;;;;;5077101;28;20533;-79
2023/12/01 07:32:29;;;;;;;7.05;3.47;;;;;;;;;;5057298;28;20037;-77
2023/12/01 07:34:55;;;;;;;4.50;2.95;;;;;;;;;;5076933;28;20619;-76
2023/12/01 07:37:22;;;;;;;4.85;3.20;;;;;;;;;;5076853;28;20032;-78
2023/12/01 07:39:47;;;;;;;5.35;3.00;;;;;;;;;;5077060;28;20043;-82
2023/12/01 07:42:13;;;;;;;4.50;2.90;;;;;;;;;;5081928;28;20032;-85
2023/12/01 07:44:39;;;;;;;6.53;3.80;;;;;;;;;;5082012;28;20041;-75
2023/12/01 07:47:11;;;;;;;4.95;3.10;;;;;;;;;;5080290;28;20037;-87
2023/12/01 07:49:37;;;;;;;5.38;3.38;;;;;;;;;;5080007;28;20032;-80
2023/12/01 07:55:21;;;;;;;4.40;3.00;;;;;;;;;;5073947;28;20040;-86
2023/12/01 07:57:46;;;;;;;3.65;2.80;;;;;;;;;;5090648;28;20041;-80
2023/12/01 08:00:15;;;;;;;4.38;3.20;;;;;;;;;;5091126;28;20020;-82
2023/12/01 08:02:52;;;;;;;5.13;3.15;;;;;;;;;;5095125;28;20036;-82
2023/12/01 08:05:28;;;;;;;6.45;3.17;;;;;;;;;;5092525;28;20040;-81
2023/12/01 08:08:03;;;;;;;6.05;3.58;;;;;;;;;;5091817;28;20066;-85
2023/12/01 08:10:42;;;;;;;4.78;3.42;;;;;;;;;;5090670;28;20058;-86
2023/12/01 08:13:31;;;;;;;5.05;2.90;;;;;;;;;;5095117;28;20076;-77
2023/12/01 08:15:56;;;;;;;4.80;3.08;;;;;;;;;;5063709;22;20040;-57
2023/12/01 08:18:22;;;;;;;6.15;3.17;;;;;;;;;;5041783;28;20041;-57
2023/12/01 08:20:47;;;;;;;5.43;3.30;;;;;;;;;;5038211;28;20678;-57
2023/12/01 08:23:13;;;;;;;4.45;2.95;;;;;;;;;;5041940;28;20094;-57
2023/12/01 08:25:38;;;;;;;4.32;2.90;;;;;;;;;;5033197;28;20098;-57
2023/12/01 08:28:03;;;;;;;4.90;3.00;;;;;;;;;;5037890;28;20132;-56
2023/12/01 08:30:29;;;;;;;3.85;2.75;;;;;;;;;;5033537;28;20063;-57
2023/12/01 08:32:54;;;;;;;5.80;3.25;;;;;;;;;;5039166;28;20478;-57
2023/12/01 08:35:21;;;;;;;4.32;2.58;;;;;;;;;;5038245;28;20064;-58
2023/12/01 08:37:47;;;;;;;5.32;3.00;;;;;;;;;;5035848;28;20501;-57
2023/12/01 08:40:12;;;;;;;4.45;2.95;;;;;;;;;;5040544;28;20162;-58
2023/12/01 08:42:39;;;;;;;4.47;3.40;;;;;;;;;;5031610;28;20033;-57
2023/12/01 08:45:05;;;;;;;4.20;2.97;;;;;;;;;;5040435;28;20422;-58
2023/12/01 08:47:30;;;;;;;4.78;2.92;;;;;;;;;;5039988;28;20037;-57
2023/12/01 08:49:56;;;;;;;4.15;2.88;;;;;;;;;;5041628;28;20441;-57
2023/12/01 08:52:21;;;;;;;6.07;3.65;;;;;;;;;;5037676;28;20114;-58
2023/12/01 08:54:47;;;;;;;4.15;3.25;;;;;;;;;;5038928;28;20025;-58
2023/12/01 08:57:12;;;;;;;4.22;2.97;;;;;;;;;;5033150;28;20037;-57
2023/12/01 08:59:37;;;;;;;4.60;2.80;;;;;;;;;;5034574;28;20442;-57
2023/12/01 09:02:04;;;;;;;4.28;2.83;;;;;;;;;;5036081;28;20029;-58
2023/12/01 09:04:29;;;;;;;4.53;3.15;;;;;;;;;;5039288;28;20070;-57
2023/12/01 09:06:54;;;;;;;4.75;2.90;;;;;;;;;;5040795;28;20033;-57
2023/12/01 09:09:20;;;;;;;4.25;3.00;;;;;;;;;;5033937;28;20040;-57
2023/12/01 09:11:45;;;;;;;4.53;3.05;;;;;;;;;;5034327;28;20033;-58
2023/12/01 09:14:10;;;;;;;4.88;3.20;;;;;;;;;;5033294;28;20039;-58
2023/12/01 09:16:35;;;;;;;6.07;2.97;;;;;;;;;;5036374;28;20071;-57
2023/12/01 09:19:01;;;;;;;4.53;2.80;;;;;;;;;;5028185;28;20106;-57
2023/12/01 09:21:26;;;;;;;4.38;2.75;;;;;;;;;;5031349;28;20064;-57
2023/12/01 09:23:52;;;;;;;4.75;3.05;;;;;;;;;;5040111;28;20037;-58
2023/12/01 09:26:18;;;;;;;4.22;2.97;;;;;;;;;;5031056;28;20094;-57
2023/12/01 09:28:43;;;;;;;4.28;2.80;;;;;;;;;;5033696;28;20543;-58
2023/12/01 09:31:10;;;;;;;5.70;3.20;;;;;;;;;;5036684;28;20040;-58
2023/12/01 09:33:37;;;;;;;4.53;2.85;;;;;;;;;;5039952;28;20048;-57
2023/12/01 09:36:02;;;;;;;4.72;3.10;;;;;;;;;;5037906;28;20532;-57
2023/12/01 09:38:27;;;;;;;4.13;2.65;;;;;;;;;;5036296;28;20130;-57
2023/12/01 09:40:53;;;;;;;6.45;2.90;;;;;;;;;;5025323;28;20364;-56
2023/12/01 09:43:18;;;;;;;4.60;2.70;;;;;;;;;;5008554;28;20052;-71
2023/12/01 09:45:44;;;;;;;4.65;2.95;;;;;;;;;;5036984;28;20037;-68
2023/12/01 09:48:09;;;;;;;3.90;2.63;;;;;;;;;;5035758;28;20176;-67
2023/12/01 09:50:35;;;;;;;4.85;2.88;;;;;;;;;;5031975;28;20029;-62
2023/12/01 09:53:00;;;;;;;4.00;2.83;;;;;;;;;;5037955;28;20146;-64
2023/12/01 09:55:26;;;;;;;4.30;2.97;;;;;;;;;;5037244;28;20371;-61
2023/12/01 09:57:53;;;;;;;4.30;2.85;;;;;;;;;;5037008;28;20044;-61
2023/12/01 10:00:18;;;;;;;5.18;3.15;;;;;;;;;;5035577;28;20111;-57
2023/12/01 10:02:43;;;;;;;7.07;2.95;;;;;;;;;;5029373;28;20041;-57
2023/12/01 10:05:13;;;;;;;3.75;2.85;;;;;;;;;;5028931;28;20044;-57
2023/12/01 10:07:39;;;;;;;;;;;;;;;;;;5036328;28;20045;-63
2023/12/01 10:10:20;;;;;;;4.03;2.63;;;;;;;;;;5035147;28;19923;-59
2023/12/01 10:12:59;;;;;;;4.28;2.67;;;;;;;;;;5027555;28;20146;-59
2023/12/01 10:15:24;;;;;;;6.20;2.88;;;;;;;;;;5029693;28;20048;-60
2023/12/01 10:17:53;;;;;;;5.15;2.70;;;;;;;;;;5031424;28;20526;-60
2023/12/01 10:20:20;;;;;;;4.97;2.88;;;;;;;;;;5025728;28;20144;-66
2023/12/01 10:22:46;;;;;;;6.10;2.75;;;;;;;;;;5031982;28;20507;-59
2023/12/01 10:25:12;;;;;;;5.65;2.85;;;;;;;;;;5028640;28;20048;-58
2023/12/01 10:27:37;;;;;;;4.93;2.60;;;;;;;;;;5050337;28;20044;-59
2023/12/01 10:30:12;;;;;;;5.03;2.47;;;;;;;;;;5036180;28;20172;-59
2023/12/01 10:32:37;;;;;;;5.50;2.65;;;;;;;;;;5034580;28;20037;-58
2023/12/01 10:35:05;;;;;;;5.07;2.60;;;;;;;;;;5032367;28;20067;-69
2023/12/01 10:37:30;;;;;;;4.40;2.50;;;;;;;;;;5035435;28;20044;-57
2023/12/01 10:39:55;;;;;;;4.22;2.53;;;;;;;;;;5041945;28;20045;-57
2023/12/01 10:42:21;;;;;;;5.57;2.70;;;;;;;;;;5034514;28;20483;-57
2023/12/01 10:44:47;;;;;;;4.10;2.80;;;;;;;;;;5015963;28;20116;-60
2023/12/01 10:47:13;;;;;;;3.83;2.50;;;;;;;;;;5041455;28;20123;-58
2023/12/01 10:49:39;;;;;;;3.40;2.33;;;;;;;;;;5035545;28;20175;-59
2023/12/01 10:52:05;;;;;;;3.67;2.53;;;;;;;;;;5043295;28;20456;-62
2023/12/01 10:54:30;;;;;;;3.55;2.55;;;;;;;;;;5043104;28;20029;-59
2023/12/01 10:57:02;;;;;;;4.70;2.70;;;;;;;;;;5037812;28;20037;-59
2023/12/01 10:59:28;;;;;;;3.90;2.65;;;;;;;;;;5039651;28;20055;-59
2023/12/01 11:01:53;;;;;;;3.75;2.40;;;;;;;;;;5036618;28;20033;-56
2023/12/01 11:04:26;;;;;;;3.80;2.80;;;;;;;;;;5038311;28;20461;-56
2023/12/01 11:07:09;;;;;;;4.68;2.33;;;;;;;;;;5039535;28;20441;-56
2023/12/01 11:09:50;;;;;;;3.67;2.42;;;;;;;;;;5027416;28;20042;-58
2023/12/01 11:12:25;;;;;;;3.38;2.20;;;;;;;;;;5054409;28;20029;-56
2023/12/01 11:14:51;;;;;;;3.95;2.20;;;;;;;;;;5036993;28;20049;-58
2023/12/01 11:17:17;;;;;;;4.28;2.50;;;;;;;;;;5032746;28;20087;-57
2023/12/01 11:19:42;;;;;;;6.03;2.70;;;;;;;;;;5041400;28;20044;-57
2023/12/01 11:22:27;;;;;;;3.95;2.30;;;;;;;;;;5037275;28;20033;-58
2023/12/01 11:24:53;;;;;;;6.20;2.40;;;;;;;;;;5036877;28;20458;-57
2023/12/01 11:27:19;;;;;;;3.53;2.30;;;;;;;;;;5042525;28;20073;-56
2023/12/01 11:30:07;;;;;;;3.40;2.08;;;;;;;;;;5037244;28;20452;-57
2023/12/01 11:32:33;;;;;;;5.20;2.50;;;;;;;;;;5042345;28;20033;-58
2023/12/01 11:35:09;;;;;;;6.20;2.50;;;;;;;;;;5041287;28;20040;-57
2023/12/01 11:37:53;;;;;;;4.00;2.45;;;;;;;;;;5038201;28;20045;-57
2023/12/01 11:40:20;;;;;;;4.82;2.50;;;;;;;;;;5037995;28;20048;-57
2023/12/01 11:42:49;;;;;;;3.20;2.38;;;;;;;;;;5038861;28;20061;-57
2023/12/01 11:45:15;;;;;;;4.40;2.40;;;;;;;;;;5036422;28;20101;-57
2023/12/01 11:47:41;;;;;;;3.65;2.60;;;;;;;;;;5040803;28;20045;-57
2023/12/01 11:50:08;;;;;;;3.90;2.22;;;;;;;;;;5041566;28;20123;-57
2023/12/01 11:52:34;;;;;;;3.78;2.50;;;;;;;;;;5049908;28;20503;-57
2023/12/01 11:54:59;;;;;;;2.90;2.17;;;;;;;;;;5038067;28;20579;-57
2023/12/01 11:57:25;;;;;;;3.50;2.28;;;;;;;;;;5039534;28;20419;-57
2023/12/01 11:59:51;;;;;;;4.50;2.63;;;;;;;;;;5040128;28;20100;-56
2023/12/01 12:02:16;;;;;;;3.28;2.50;;;;;;;;;;5057160;28;20034;-57
2023/12/01 12:04:46;;;;;;;3.70;2.40;;;;;;;;;;5039746;28;20406;-57
2023/12/01 12:07:11;;;;;;;3.83;2.10;;;;;;;;;;5039464;28;20124;-57
2023/12/01 12:09:38;;;;;;;4.43;3.00;;;;;;;;;;5040811;28;20112;-57
2023/12/01 12:12:09;;;;;;;4.07;2.47;;;;;;;;;;5037511;28;20037;-57
2023/12/01 12:14:37;;;;;;;3.47;2.65;;;;;;;;;;5038935;28;20567;-57
2023/12/01 12:17:03;;;;;;;4.18;2.30;;;;;;;;;;5041438;28;20049;-57
2023/12/01 12:19:29;;;;;;;3.65;2.47;;;;;;;;;;5035294;28;20135;-58
2023/12/01 12:21:54;;;;;;;3.85;2.20;;;;;;;;;;5037130;28;20541;-57
2023/12/01 12:24:19;;;;;;;3.78;2.20;;;;;;;;;;5032662;28;20059;-57
2023/12/01 12:26:45;;;;;;;3.30;2.20;;;;;;;;;;5038502;28;20162;-59
2023/12/01 12:29:11;;;;;;;4.50;2.55;;;;;;;;;;5039522;28;20106;-57
2023/12/01 12:31:37;;;;;;;4.30;2.42;;;;;;;;;;5034413;28;20025;-59
2023/12/01 12:34:04;;;;;;;3.60;2.10;;;;;;;;;;5024400;28;20033;-57
2023/12/01 12:36:29;;;;;;;3.25;2.10;;;;;;;;;;5041524;28;20469;-57
2023/12/01 12:38:58;;;;;;;3.13;2.28;;;;;;;;;;5040304;28;20059;-57
2023/12/01 12:41:23;;;;;;;3.33;2.08;;;;;;;;;;5040799;28;20390;-57
2023/12/01 12:43:52;;;;;;;4.35;2.17;;;;;;;;;;5035523;28;20473;-56
2023/12/01 12:46:18;;;;;;;3.10;2.10;;;;;;;;;;5040045;28;20052;-57
2023/12/01 12:48:43;;;;;;;3.92;2.15;;;;;;;;;;5043741;28;20024;-57
2023/12/01 12:51:10;;;;;;;3.72;2.28;;;;;;;;;;5029279;28;20418;-56
2023/12/01 12:53:36;;;;;;;3.75;2.05;;;;;;;;;;5029834;28;20036;-56
2023/12/01 12:56:09;;;;;;;3.45;2.22;;;;;;;;;;5026292;28;20503;-57
2023/12/01 12:58:34;;;;;;;3.28;2.05;;;;;;;;;;5035837;28;20023;-57
2023/12/01 13:01:00;;;;;;;4.07;2.65;;;;;;;;;;5028970;28;20094;-57
2023/12/01 13:03:25;;;;;;;3.15;2.08;;;;;;;;;;5034110;28;20029;-57
2023/12/01 13:05:50;;;;;;;3.63;2.30;;;;;;;;;;5025096;28;20418;-56
2023/12/01 13:08:16;;;;;;;4.03;2.20;;;;;;;;;;5034626;28;20091;-57
2023/12/01 13:10:41;;;;;;;3.45;2.33;;;;;;;;;;5031789;28;20033;-58
2023/12/01 13:13:06;;;;;;;3.08;2.05;;;;;;;;;;5031011;28;20033;-57
2023/12/01 13:15:32;;;;;;;3.15;2.08;;;;;;;;;;5028419;28;20033;-57
2023/12/01 13:17:57;;;;;;;3.20;2.33;;;;;;;;;;5038878;28;20037;-57
2023/12/01 13:20:23;;;;;;;2.92;2.03;;;;;;;;;;5039991;28;20049;-58
2023/12/01 13:22:48;;;;;;;2.45;1.80;;;;;;;;;;5030002;28;20029;-57
2023/12/01 13:25:14;;;;;;;3.13;2.38;;;;;;;;;;5028524;28;20042;-57
2023/12/01 13:27:39;;;;;;;3.30;2.35;;;;;;;;;;5036669;28;20711;-57
2023/12/01 13:30:05;;;;;;;3.25;2.13;;;;;;;;;;5039222;28;20498;-57
2023/12/01 13:32:30;;;;;;;2.47;1.73;;;;;;;;;;5037713;28;20051;-59
2023/12/01 13:34:55;;;;;;;2.72;1.90;;;;;;;;;;5028062;28;20116;-56
2023/12/01 13:37:21;;;;;;;3.00;1.90;;;;;;;;;;5035013;28;20486;-56
2023/12/01 13:39:46;;;;;;;3.30;1.95;;;;;;;;;;5036456;28;20161;-57
2023/12/01 13:42:12;;;;;;;3.08;2.00;;;;;;;;;;5029929;28;20056;-58
2023/12/01 13:44:37;;;;;;;3.65;2.17;;;;;;;;;;5025798;28;20045;-57
2023/12/01 13:47:02;;;;;;;2.50;1.95;;;;;;;;;;5039518;28;20068;-57
2023/12/01 13:49:28;;;;;;;2.75;1.80;;;;;;;;;;5029758;28;20036;-57
2023/12/01 13:51:53;;;;;;;3.47;1.80;;;;;;;;;;5033809;28;20127;-56
2023/12/01 13:54:18;;;;;;;3.53;2.17;;;;;;;;;;5040457;28;20029;-57
2023/12/01 13:56:44;;;;;;;3.58;1.92;;;;;;;;;;5037658;28;20037;-59
2023/12/01 13:59:09;;;;;;;2.10;1.50;;;;;;;;;;5030288;28;20103;-58
2023/12/01 14:01:35;;;;;;;2.70;1.77;;;;;;;;;;5036607;28;20485;-59
2023/12/01 14:04:01;;;;;;;3.00;1.88;;;;;;;;;;5038735;28;20037;-58
2023/12/01 14:06:27;;;;;;;3.20;2.03;;;;;;;;;;5036747;28;20036;-57
2023/12/01 14:08:52;;;;;;;2.55;1.52;;;;;;;;;;5038627;28;20046;-58
2023/12/01 14:11:18;;;;;;;2.33;1.83;;;;;;;;;;5040548;28;20047;-58
2023/12/01 14:13:43;;;;;;;3.35;1.92;;;;;;;;;;5035277;28;20037;-57
2023/12/01 14:16:09;;;;;;;2.42;1.60;;;;;;;;;;5046052;28;20048;-59
2023/12/01 14:18:35;;;;;;;2.78;1.75;;;;;;;;;;5021465;28;20124;-56
2023/12/01 14:21:00;;;;;;;3.10;1.70;;;;;;;;;;5036013;28;20121;-57
2023/12/01 14:23:25;;;;;;;2.72;1.75;;;;;;;;;;5037036;28;20499;-57
2023/12/01 14:25:51;;;;;;;3.25;1.90;;;;;;;;;;5032176;28;20040;-58
2023/12/01 14:28:16;;;;;;;2.47;1.73;;;;;;;;;;5042853;28;20045;-58
2023/12/01 14:30:41;;;;;;;5.88;2.05;;;;;;;;;;5040413;28;20029;-57
2023/12/01 14:33:07;;;;;;;4.93;1.85;;;;;;;;;;5039301;28;20041;-57
2023/12/01 14:35:32;;;;;;;3.03;1.85;;;;;;;;;;5038526;28;20040;-57
2023/12/01 14:37:58;;;;;;;2.83;1.63;;;;;;;;;;5038229;28;20120;-57
2023/12/01 14:40:23;;;;;;;2.95;1.90;;;;;;;;;;5036701;28;20081;-60
2023/12/01 14:42:49;;;;;;;4.00;2.00;;;;;;;;;;5038162;28;20056;-58
2023/12/01 14:45:14;;;;;;;2.60;1.80;;;;;;;;;;5043277;28;20995;-57